Alvin, Texas
Current Conditions -  °F | °C
As of 11:30 AM on Thursday 18 Dec 2014 (Local Time) from KLVJ Reporting Station
Haze Haze  
Wind Chill: 68°   Ceiling: 1400
Heat Index: 68°   Visibility: 4mi
Dew Point: 65°   Wind: 7mph
Humidity: 90%   Direction: 40°NE
Pressure: 30.11"   Gusts: NA
Location:  29.42°N, 95.24°W
Report Text: KLVJ 181730Z AUTO 04006KT 4SM BR SCT005 OVC014 20/18 A3011 RMK AO2 T02000183
Loading
Personal Weather Stations






























Interactive Weather Map New forecast layout! Learn more

10-Day Weather Forecast

Advertisements
Track Severe Weather on mobile